createdAt,value
2019-04-20T00:00:11.211Z,49.80
2019-04-20T00:01:22.697Z,49.80
2019-04-20T00:02:18.671Z,49.80
2019-04-20T00:03:07.540Z,49.90
2019-04-20T00:04:09.799Z,49.80
2019-04-20T00:05:05.670Z,49.70
2019-04-20T00:06:07.292Z,49.60
2019-04-20T00:07:06.342Z,49.60
2019-04-20T00:08:16.602Z,49.90
2019-04-20T00:09:19.263Z,49.80
2019-04-20T00:10:15.474Z,50.00
2019-04-20T00:11:18.401Z,50.40
2019-04-20T00:12:22.773Z,50.40
2019-04-20T00:13:28.510Z,50.20
2019-04-20T00:14:19.613Z,50.30
2019-04-20T00:15:05.417Z,50.20
2019-04-20T00:16:08.205Z,50.80
2019-04-20T00:17:05.555Z,50.60
2019-04-20T00:18:10.151Z,50.50
2019-04-20T00:19:10.689Z,50.50
2019-04-20T00:20:20.412Z,50.50
2019-04-20T00:21:14.156Z,50.60
2019-04-20T00:22:13.318Z,50.60
2019-04-20T00:23:06.302Z,50.60
2019-04-20T00:24:16.373Z,50.80
2019-04-20T00:25:20.150Z,51.20
2019-04-20T00:26:27.257Z,51.20
2019-04-20T00:27:48.452Z,51.40
2019-04-20T00:28:44.094Z,51.40
2019-04-20T00:29:44.669Z,51.40
2019-04-20T00:30:50.177Z,51.40
2019-04-20T00:31:34.958Z,51.40
2019-04-20T00:32:22.823Z,51.30
2019-04-20T00:33:36.755Z,51.20
2019-04-20T00:34:22.774Z,51.20
2019-04-20T00:35:06.538Z,51.20
2019-04-20T00:36:05.753Z,51.30
2019-04-20T00:37:08.528Z,51.30
2019-04-20T00:38:06.063Z,51.40
2019-04-20T00:39:11.820Z,51.30
2019-04-20T00:40:10.273Z,51.80
2019-04-20T00:41:13.453Z,51.60
2019-04-20T00:42:17.649Z,51.50
2019-04-20T00:43:12.909Z,51.50
2019-04-20T00:44:19.191Z,51.50
2019-04-20T00:45:21.675Z,51.80
2019-04-20T00:46:16.469Z,52.20
2019-04-20T00:47:33.976Z,51.90
2019-04-20T00:48:31.436Z,51.90
2019-04-20T00:49:34.410Z,52.30
2019-04-20T00:51:44.716Z,52.30
2019-04-20T00:52:46.619Z,52.20
2019-04-20T00:53:33.239Z,52.60
2019-04-20T00:54:11.923Z,52.50
2019-04-20T00:55:06.740Z,52.50
2019-04-20T00:56:05.859Z,52.50
2019-04-20T00:57:29.039Z,52.40
2019-04-20T00:58:25.870Z,52.40
2019-04-20T00:59:35.174Z,52.50
2019-04-20T01:00:45.866Z,53.20
2019-04-20T01:01:51.721Z,53.20
2019-04-20T01:02:33.221Z,53.40
2019-04-20T01:03:38.598Z,53.70
2019-04-20T01:04:40.558Z,53.70
2019-04-20T01:05:46.187Z,53.50
2019-04-20T01:06:40.472Z,53.40
2019-04-20T01:07:29.653Z,53.30
2019-04-20T01:08:09.999Z,53.60
2019-04-20T01:09:05.847Z,53.50
2019-04-20T01:10:06.840Z,53.60
2019-04-20T01:11:06.434Z,53.70
2019-04-20T01:12:22.883Z,53.80
2019-04-20T01:13:16.763Z,53.80
2019-04-20T01:14:16.135Z,53.60
2019-04-20T01:15:13.699Z,53.60
2019-04-20T01:16:29.183Z,53.50
2019-04-20T01:17:13.403Z,53.60
2019-04-20T01:18:13.848Z,53.70
2019-04-20T01:19:07.688Z,53.50
2019-04-20T01:20:08.226Z,53.40
2019-04-20T01:21:18.447Z,53.40
2019-04-20T01:22:18.347Z,53.40
2019-04-20T01:23:13.834Z,53.40
2019-04-20T01:24:10.401Z,53.40
2019-04-20T01:25:24.302Z,53.40
2019-04-20T01:26:15.618Z,53.60
2019-04-20T01:27:23.610Z,53.50
2019-04-20T01:28:37.154Z,53.60
2019-04-20T01:29:27.883Z,53.50
2019-04-20T01:30:27.737Z,53.70
2019-04-20T01:31:27.060Z,53.80
2019-04-20T01:32:26.381Z,53.80
2019-04-20T01:33:31.554Z,53.70
2019-04-20T01:34:38.835Z,53.90
2019-04-20T01:36:50.212Z,53.80
2019-04-20T01:37:35.940Z,53.70
2019-04-20T01:38:39.764Z,53.60
2019-04-20T01:39:28.233Z,53.60
2019-04-20T01:40:09.862Z,53.60
2019-04-20T01:41:05.778Z,53.50
2019-04-20T01:42:06.897Z,53.40
2019-04-20T01:43:05.999Z,53.40
2019-04-20T01:44:05.475Z,53.40
2019-04-20T01:45:19.770Z,53.50
2019-04-20T01:46:18.602Z,53.40
2019-04-20T01:47:09.682Z,53.30
2019-04-20T01:48:08.180Z,53.20
2019-04-20T01:49:20.951Z,53.20
2019-04-20T01:50:19.024Z,53.20
2019-04-20T01:51:21.096Z,53.20
2019-04-20T01:52:22.874Z,53.20
2019-04-20T01:53:38.354Z,53.20
2019-04-20T01:54:45.158Z,53.30
2019-04-20T01:55:27.438Z,53.30
2019-04-20T01:57:22.545Z,53.50
2019-04-20T01:58:46.001Z,53.30
2019-04-20T01:59:22.661Z,53.30
2019-04-20T02:00:20.989Z,53.40
2019-04-20T02:01:20.936Z,53.50
2019-04-20T02:02:16.379Z,53.40
2019-04-20T02:03:09.900Z,53.30
2019-04-20T02:04:12.101Z,53.40
2019-04-20T02:05:21.222Z,53.50
2019-04-20T02:06:14.821Z,53.70
2019-04-20T02:07:10.197Z,54.30
2019-04-20T02:08:18.242Z,54.30
2019-04-20T02:09:17.104Z,54.70
2019-04-20T02:10:14.812Z,54.30
2019-04-20T02:11:09.463Z,54.40
2019-04-20T02:12:16.886Z,54.50
2019-04-20T02:13:09.719Z,54.30
2019-04-20T02:14:10.283Z,54.20
2019-04-20T02:15:17.658Z,54.10
2019-04-20T02:16:24.277Z,54.00
2019-04-20T02:17:29.684Z,54.10
2019-04-20T02:18:31.670Z,54.00
2019-04-20T02:19:34.318Z,53.90
2019-04-20T02:20:48.130Z,54.00
2019-04-20T02:21:46.517Z,54.10
2019-04-20T02:22:29.683Z,54.20
2019-04-20T02:23:30.434Z,54.20
2019-04-20T02:24:11.281Z,54.50
2019-04-20T02:25:06.193Z,55.00
2019-04-20T02:26:05.466Z,55.00
2019-04-20T02:27:06.565Z,55.10
2019-04-20T02:29:57.997Z,55.10
2019-04-20T02:31:12.938Z,55.00
2019-04-20T02:32:22.328Z,54.90
2019-04-20T02:33:25.638Z,55.00
2019-04-20T02:34:14.823Z,55.00
2019-04-20T02:35:15.725Z,55.10
2019-04-20T02:36:40.022Z,55.20
2019-04-20T02:37:35.594Z,55.10
2019-04-20T02:39:28.536Z,55.20
2019-04-20T02:40:25.048Z,55.10
2019-04-20T02:40:50.137Z,55.10
2019-04-20T02:41:49.522Z,55.00
2019-04-20T02:43:24.691Z,54.90
2019-04-20T02:44:30.233Z,54.90
2019-04-20T02:44:45.846Z,54.90
2019-04-20T02:45:50.380Z,55.10
2019-04-20T02:47:13.741Z,55.60
2019-04-20T02:50:18.817Z,55.60
2019-04-20T02:51:12.297Z,55.60
2019-04-20T02:52:20.729Z,55.70
2019-04-20T02:53:29.521Z,56.00
2019-04-20T02:55:07.502Z,55.70
2019-04-20T02:57:09.006Z,55.50
2019-04-20T02:58:14.687Z,55.50
2019-04-20T02:59:16.923Z,55.60
2019-04-20T03:00:44.267Z,55.80
2019-04-20T03:01:49.997Z,56.30
2019-04-20T03:02:42.333Z,56.00
2019-04-20T03:03:27.528Z,55.90
2019-04-20T03:04:25.566Z,56.00
2019-04-20T03:05:29.198Z,55.90
2019-04-20T03:06:35.984Z,56.10
2019-04-20T03:07:27.283Z,56.20
2019-04-20T03:08:42.856Z,56.10
2019-04-20T03:09:49.963Z,56.10
2019-04-20T03:10:52.226Z,56.20
2019-04-20T03:12:07.817Z,56.20
2019-04-20T03:12:42.574Z,56.10
2019-04-20T03:13:48.384Z,56.10
2019-04-20T03:14:38.294Z,56.60
2019-04-20T03:15:47.973Z,56.60
2019-04-20T03:16:50.131Z,56.30
2019-04-20T03:18:44.177Z,56.70
2019-04-20T03:19:40.730Z,56.50
2019-04-20T03:20:51.750Z,56.60
2019-04-20T03:21:56.732Z,56.70
2019-04-20T03:23:22.794Z,56.60
2019-04-20T03:24:53.803Z,56.60
2019-04-20T03:25:54.103Z,56.60
2019-04-20T03:26:40.039Z,56.70
2019-04-20T03:27:32.867Z,56.70
2019-04-20T03:28:42.751Z,56.70
2019-04-20T03:29:55.990Z,56.70
2019-04-20T03:31:52.113Z,56.60
2019-04-20T03:32:24.711Z,56.80
2019-04-20T03:33:01.960Z,57.00
2019-04-20T03:34:22.373Z,57.00
2019-04-20T03:35:00.360Z,56.90
2019-04-20T03:35:56.909Z,56.80
2019-04-20T03:37:06.690Z,56.70
2019-04-20T03:37:36.178Z,56.60
2019-04-20T03:38:53.120Z,56.60
2019-04-20T03:39:44.441Z,56.60
2019-04-20T03:40:39.803Z,56.60
2019-04-20T03:41:24.045Z,56.50
2019-04-20T03:42:09.237Z,56.60
2019-04-20T03:43:08.046Z,56.60
2019-04-20T03:44:12.513Z,56.60
2019-04-20T03:45:16.152Z,56.60
2019-04-20T03:46:12.535Z,56.70
2019-04-20T03:47:14.989Z,56.60
2019-04-20T03:48:46.140Z,56.40
2019-04-20T03:49:54.457Z,56.50
2019-04-20T03:50:56.269Z,56.50
2019-04-20T03:52:42.754Z,56.40
2019-04-20T03:53:39.149Z,56.50
2019-04-20T03:54:30.525Z,56.60
2019-04-20T03:56:48.985Z,56.50
2019-04-20T03:57:57.023Z,56.60
2019-04-20T03:58:44.018Z,56.80
2019-04-20T03:59:36.628Z,56.80
2019-04-20T04:00:49.641Z,56.90
2019-04-20T04:01:47.211Z,56.90
2019-04-20T04:02:45.248Z,57.00
2019-04-20T04:03:52.933Z,57.50
2019-04-20T04:04:33.453Z,57.40
2019-04-20T04:05:40.666Z,57.30
2019-04-20T04:06:25.931Z,57.30
2019-04-20T04:07:26.458Z,57.30
2019-04-20T04:08:16.861Z,57.40
2019-04-20T04:09:28.508Z,57.30
2019-04-20T04:10:33.349Z,57.20
2019-04-20T04:11:43.025Z,57.20
2019-04-20T04:12:22.529Z,57.40
2019-04-20T04:13:10.064Z,57.30
2019-04-20T04:14:05.397Z,57.30
2019-04-20T04:15:06.902Z,57.20
2019-04-20T04:16:13.035Z,57.20
2019-04-20T04:17:08.589Z,57.20
2019-04-20T04:18:19.616Z,57.20
2019-04-20T04:19:23.023Z,57.20
2019-04-20T04:20:14.728Z,57.40
2019-04-20T04:21:15.142Z,57.40
2019-04-20T04:22:37.558Z,57.60
2019-04-20T04:23:44.316Z,57.60
2019-04-20T04:24:34.268Z,57.70
2019-04-20T04:25:32.198Z,57.60
2019-04-20T04:26:42.575Z,57.70
2019-04-20T04:28:40.352Z,57.60
2019-04-20T04:29:41.736Z,57.60
2019-04-20T04:30:32.780Z,57.50
2019-04-20T04:33:19.832Z,57.50
2019-04-20T04:33:55.466Z,57.50
2019-04-20T04:34:33.593Z,57.50
2019-04-20T04:35:36.071Z,57.30
2019-04-20T04:37:45.553Z,57.20
2019-04-20T04:38:37.204Z,57.10
2019-04-20T04:39:48.315Z,57.20
2019-04-20T04:41:01.732Z,57.10
2019-04-20T04:42:01.019Z,57.10
2019-04-20T04:43:36.896Z,57.20
2019-04-20T04:44:37.409Z,57.40
2019-04-20T04:45:13.914Z,57.50
2019-04-20T04:46:06.205Z,57.60
2019-04-20T04:47:10.495Z,57.60
2019-04-20T04:48:25.116Z,57.90
2019-04-20T04:49:26.233Z,57.90
2019-04-20T04:50:17.553Z,57.90
2019-04-20T04:51:17.416Z,58.00
2019-04-20T04:52:16.511Z,58.00
2019-04-20T04:53:27.026Z,57.90
2019-04-20T04:54:27.819Z,57.70
2019-04-20T04:55:32.652Z,57.50
2019-04-20T04:56:16.834Z,57.30
2019-04-20T04:57:05.638Z,57.20
2019-04-20T04:58:08.932Z,57.10
2019-04-20T04:59:06.889Z,57.10
2019-04-20T05:00:10.138Z,56.90
2019-04-20T05:01:20.377Z,56.60
2019-04-20T05:02:05.803Z,56.20
2019-04-20T05:05:48.472Z,55.70
2019-04-20T05:06:37.260Z,55.60
2019-04-20T05:07:28.863Z,55.30
2019-04-20T05:08:26.035Z,54.60
2019-04-20T05:09:13.654Z,54.50
2019-04-20T05:10:11.491Z,53.90
2019-04-20T05:11:11.446Z,53.50
2019-04-20T05:12:17.380Z,53.40
2019-04-20T05:13:11.643Z,52.50
2019-04-20T05:14:16.981Z,52.60
2019-04-20T05:15:29.277Z,52.00
2019-04-20T05:16:49.768Z,51.60
2019-04-20T05:18:49.883Z,50.70
2019-04-20T05:19:47.313Z,50.40
2019-04-20T05:20:52.877Z,50.20
2019-04-20T05:21:58.522Z,49.40
2019-04-20T05:22:45.301Z,49.40
2019-04-20T05:23:37.140Z,49.10
2019-04-20T05:24:38.090Z,48.80
2019-04-20T05:25:56.785Z,48.60
2019-04-20T05:26:49.194Z,48.00
2019-04-20T05:27:50.702Z,48.00
2019-04-20T05:28:30.424Z,47.60
2019-04-20T05:29:24.780Z,47.10
2019-04-20T05:30:06.067Z,47.10
2019-04-20T05:31:10.121Z,47.10
2019-04-20T05:32:18.356Z,46.90
2019-04-20T05:33:24.208Z,46.40
2019-04-20T05:35:48.465Z,45.90
2019-04-20T05:38:06.246Z,45.10
2019-04-20T05:38:54.102Z,44.70
2019-04-20T05:39:57.330Z,44.70
2019-04-20T05:41:36.913Z,44.10
2019-04-20T05:43:31.447Z,43.60
2019-04-20T05:45:41.217Z,43.30
2019-04-20T05:46:45.686Z,43.00
2019-04-20T05:47:38.416Z,42.80
2019-04-20T05:49:44.892Z,42.50
2019-04-20T05:50:41.523Z,42.50
2019-04-20T05:51:47.387Z,42.40
2019-04-20T05:53:07.082Z,42.30
2019-04-20T05:53:56.290Z,42.20
2019-04-20T05:54:32.099Z,41.80
2019-04-20T05:55:42.888Z,41.80
2019-04-20T05:56:49.938Z,41.60
2019-04-20T05:57:56.254Z,40.80
2019-04-20T05:59:25.766Z,40.30
2019-04-20T06:01:00.064Z,40.10
2019-04-20T06:01:57.282Z,39.80
2019-04-20T06:02:43.682Z,39.70
2019-04-20T06:03:48.632Z,39.50
2019-04-20T06:05:08.270Z,39.50
2019-04-20T06:06:03.082Z,39.10
2019-04-20T06:06:48.935Z,39.10
2019-04-20T06:07:47.157Z,38.90
2019-04-20T06:11:00.261Z,38.30
2019-04-20T06:12:45.270Z,37.70
2019-04-20T06:13:37.718Z,37.50
2019-04-20T06:14:27.579Z,37.40
2019-04-20T06:15:38.134Z,37.20
2019-04-20T06:16:55.586Z,37.10
2019-04-20T06:17:48.756Z,37.30
2019-04-20T06:18:39.938Z,37.30
2019-04-20T06:19:59.892Z,37.30
2019-04-20T06:20:47.503Z,37.20
2019-04-20T06:21:36.438Z,36.90
2019-04-20T06:23:03.018Z,36.90
2019-04-20T06:23:56.257Z,36.80
2019-04-20T06:25:14.331Z,36.20
2019-04-20T06:26:18.996Z,36.40
2019-04-20T06:26:59.115Z,36.50
2019-04-20T06:27:50.990Z,36.40
2019-04-20T06:28:42.292Z,36.30
2019-04-20T06:29:40.703Z,36.30
2019-04-20T06:30:41.084Z,36.50
2019-04-20T06:31:57.284Z,36.10
2019-04-20T06:32:50.632Z,36.20
2019-04-20T06:34:53.242Z,35.70
2019-04-20T06:36:13.190Z,35.60
2019-04-20T06:36:49.505Z,35.60
2019-04-20T06:37:53.583Z,35.40
2019-04-20T06:38:55.580Z,35.30
2019-04-20T06:39:54.175Z,35.40
2019-04-20T06:40:53.812Z,35.40
2019-04-20T06:42:09.702Z,35.50
2019-04-20T06:42:47.959Z,35.30
2019-04-20T06:44:47.978Z,35.20
2019-04-20T06:46:58.317Z,35.10
2019-04-20T06:48:39.995Z,34.60
2019-04-20T06:49:50.248Z,34.40
2019-04-20T06:50:43.821Z,34.40
2019-04-20T06:51:58.516Z,34.40
2019-04-20T06:52:52.226Z,34.50
2019-04-20T06:53:48.541Z,34.50
2019-04-20T06:54:37.914Z,34.50
2019-04-20T06:55:48.251Z,34.20
2019-04-20T06:56:53.905Z,34.10
2019-04-20T06:57:49.449Z,34.10
2019-04-20T06:59:11.539Z,33.90
2019-04-20T06:59:52.150Z,33.70
2019-04-20T07:02:02.614Z,33.30
2019-04-20T07:02:41.106Z,33.20
2019-04-20T07:03:51.129Z,33.20
2019-04-20T07:05:38.884Z,32.70
2019-04-20T07:06:50.063Z,33.00
2019-04-20T07:08:08.069Z,33.10
2019-04-20T07:09:13.732Z,32.90
2019-04-20T07:10:08.276Z,32.80
2019-04-20T07:10:51.216Z,32.80
2019-04-20T07:11:46.072Z,32.80
2019-04-20T07:12:44.869Z,32.80
2019-04-20T07:13:30.740Z,32.90
2019-04-20T07:14:27.077Z,32.20
2019-04-20T07:16:51.031Z,32.70
2019-04-20T07:18:07.934Z,32.40
2019-04-20T07:19:44.243Z,32.50
2019-04-20T07:20:55.210Z,32.00
2019-04-20T07:22:18.373Z,32.30
2019-04-20T07:22:37.317Z,32.50
2019-04-20T07:24:56.261Z,32.40
2019-04-20T07:25:47.146Z,32.70
2019-04-20T07:27:00.284Z,32.70
2019-04-20T07:27:47.769Z,32.50
2019-04-20T07:28:38.016Z,32.90
2019-04-20T07:29:51.291Z,32.50
2019-04-20T07:30:44.713Z,32.80
2019-04-20T07:31:48.335Z,32.80
2019-04-20T07:33:46.185Z,32.90
2019-04-20T07:34:55.455Z,32.80
2019-04-20T07:35:45.994Z,33.00
2019-04-20T07:38:34.102Z,32.70
2019-04-20T07:38:59.536Z,32.90
2019-04-20T07:39:47.625Z,32.70
2019-04-20T07:40:41.702Z,33.00
2019-04-20T07:42:55.042Z,32.90
2019-04-20T07:43:38.873Z,32.70
2019-04-20T07:44:34.092Z,32.70
2019-04-20T07:45:32.890Z,32.80
2019-04-20T07:47:06.790Z,32.90
2019-04-20T07:48:41.998Z,33.00
2019-04-20T07:50:37.171Z,33.10
2019-04-20T07:51:24.758Z,33.00
2019-04-20T07:52:08.413Z,33.00
2019-04-20T07:53:36.018Z,33.20
2019-04-20T07:55:17.073Z,33.30
2019-04-20T07:56:04.336Z,33.30
2019-04-20T07:56:53.549Z,32.40
2019-04-20T07:57:41.750Z,32.70
2019-04-20T07:58:30.351Z,32.90
2019-04-20T07:59:29.878Z,33.20
2019-04-20T08:01:07.447Z,33.50
2019-04-20T08:02:48.588Z,33.40
2019-04-20T08:03:50.002Z,33.20
2019-04-20T08:04:42.089Z,33.00
2019-04-20T08:05:36.210Z,33.20
2019-04-20T08:06:24.713Z,33.20
2019-04-20T08:07:12.085Z,33.10
2019-04-20T08:08:43.411Z,33.10
2019-04-20T08:09:32.343Z,33.10
2019-04-20T08:10:33.519Z,33.00
2019-04-20T08:11:48.578Z,33.00
2019-04-20T08:13:09.090Z,32.90
2019-04-20T08:16:00.284Z,32.90
2019-04-20T08:17:53.741Z,32.60
2019-04-20T08:18:43.877Z,32.20
2019-04-20T08:20:38.316Z,32.70
2019-04-20T08:21:47.145Z,33.00
2019-04-20T08:22:58.397Z,32.90
2019-04-20T08:23:28.413Z,31.80
2019-04-20T08:24:42.523Z,31.60
2019-04-20T08:25:30.265Z,31.70
2019-04-20T08:26:25.043Z,32.10
2019-04-20T08:27:12.796Z,32.20
2019-04-20T08:28:21.227Z,32.60
2019-04-20T08:29:33.566Z,32.60
2019-04-20T08:30:38.344Z,32.90
2019-04-20T08:31:35.641Z,32.50
2019-04-20T08:32:41.078Z,32.40
2019-04-20T08:33:54.406Z,32.50
2019-04-20T08:34:53.197Z,32.80
2019-04-20T08:35:58.095Z,32.40
2019-04-20T08:36:56.500Z,32.90
2019-04-20T08:37:46.842Z,32.90
2019-04-20T08:39:19.792Z,33.10
2019-04-20T08:40:06.537Z,33.00
2019-04-20T08:40:47.484Z,32.20
2019-04-20T08:41:49.914Z,32.00
2019-04-20T08:43:52.990Z,30.70
2019-04-20T08:45:06.935Z,30.50
2019-04-20T08:46:05.090Z,30.60
2019-04-20T08:46:31.946Z,30.60
2019-04-20T08:48:02.594Z,30.40
2019-04-20T08:48:50.549Z,30.70
2019-04-20T08:50:50.322Z,30.70
2019-04-20T08:52:01.198Z,31.20
2019-04-20T08:53:20.075Z,31.80
2019-04-20T08:53:41.683Z,31.70
2019-04-20T08:54:47.681Z,31.10
2019-04-20T08:55:41.199Z,31.20
2019-04-20T08:56:33.413Z,31.40
2019-04-20T08:57:06.628Z,31.30
2019-04-20T08:58:06.984Z,31.30
2019-04-20T08:59:06.396Z,31.40
2019-04-20T09:00:08.986Z,31.60
2019-04-20T09:01:20.716Z,31.70
2019-04-20T09:02:14.185Z,31.70
2019-04-20T09:03:24.632Z,31.40
2019-04-20T09:04:20.605Z,31.20
2019-04-20T09:06:36.145Z,30.10
2019-04-20T09:07:21.626Z,30.00
2019-04-20T09:08:18.711Z,30.00
2019-04-20T09:10:42.042Z,29.80
2019-04-20T09:11:46.780Z,29.90
2019-04-20T09:12:38.930Z,29.60
2019-04-20T09:13:26.772Z,29.60
2019-04-20T09:14:10.256Z,29.30
2019-04-20T09:15:06.404Z,28.90
2019-04-20T09:16:07.005Z,29.00
2019-04-20T09:17:11.221Z,29.00
2019-04-20T09:18:23.956Z,29.10
2019-04-20T09:19:16.824Z,29.10
2019-04-20T09:20:26.891Z,28.80
2019-04-20T09:21:28.441Z,28.80
2019-04-20T09:22:33.903Z,28.80
2019-04-20T09:23:36.157Z,28.20
2019-04-20T09:26:04.455Z,28.10
2019-04-20T09:26:42.115Z,28.00
2019-04-20T09:27:34.623Z,28.20
2019-04-20T09:28:28.347Z,28.50
2019-04-20T09:29:29.214Z,28.50
2019-04-20T09:30:37.005Z,28.30
2019-04-20T09:31:34.949Z,28.00
2019-04-20T09:32:38.179Z,27.90
2019-04-20T09:33:39.722Z,26.90
2019-04-20T09:34:46.316Z,27.20
2019-04-20T09:36:37.368Z,26.80
2019-04-20T09:37:47.019Z,26.40
2019-04-20T09:38:40.340Z,25.80
2019-04-20T09:39:30.248Z,25.80
2019-04-20T09:40:34.806Z,26.60
2019-04-20T09:41:54.108Z,26.50
2019-04-20T09:42:08.360Z,26.80
2019-04-20T09:43:06.977Z,26.80
2019-04-20T09:44:07.148Z,26.50
2019-04-20T09:45:13.167Z,26.10
2019-04-20T09:46:10.134Z,26.00
2019-04-20T09:47:09.045Z,26.60
2019-04-20T09:48:23.887Z,26.80
2019-04-20T09:49:32.798Z,26.80
2019-04-20T09:50:40.739Z,26.30
2019-04-20T09:51:39.644Z,26.10
2019-04-20T09:52:34.884Z,24.60
2019-04-20T09:53:29.323Z,24.50
2019-04-20T09:54:45.086Z,24.00
2019-04-20T09:55:33.455Z,24.50
2019-04-20T09:56:35.548Z,24.20
2019-04-20T09:57:49.797Z,24.20
2019-04-20T09:58:28.873Z,24.30
2019-04-20T09:59:49.409Z,24.60
2019-04-20T10:00:41.808Z,24.70
2019-04-20T10:01:27.987Z,24.90
2019-04-20T10:02:16.491Z,25.20
2019-04-20T10:03:06.562Z,25.60
2019-04-20T10:04:05.915Z,25.70
2019-04-20T10:05:11.288Z,24.20
2019-04-20T10:06:05.878Z,24.10
2019-04-20T10:07:15.965Z,23.80
2019-04-20T10:08:10.361Z,23.10
2019-04-20T10:09:12.003Z,22.80
2019-04-20T10:10:28.661Z,22.80
2019-04-20T10:11:06.078Z,22.00
2019-04-20T10:12:06.093Z,21.70
2019-04-20T10:13:11.525Z,21.30
2019-04-20T10:14:06.561Z,21.20
2019-04-20T10:15:18.957Z,21.40
2019-04-20T10:16:06.263Z,21.60
2019-04-20T10:17:07.652Z,21.30
2019-04-20T10:18:06.122Z,21.70
2019-04-20T10:19:11.851Z,22.30
2019-04-20T10:20:22.118Z,22.30
2019-04-20T10:21:05.844Z,22.40
2019-04-20T10:22:06.995Z,21.30
2019-04-20T10:23:06.704Z,20.60
2019-04-20T10:24:06.703Z,21.20
2019-04-20T10:25:07.033Z,21.70
2019-04-20T10:26:10.511Z,22.10
2019-04-20T10:27:06.733Z,22.10
2019-04-20T10:28:07.279Z,21.40
2019-04-20T10:29:06.074Z,21.00
2019-04-20T10:30:06.465Z,20.90
2019-04-20T10:31:06.832Z,19.90
2019-04-20T10:32:14.472Z,19.50
2019-04-20T10:33:06.193Z,19.90
2019-04-20T10:34:05.326Z,19.60
2019-04-20T10:35:16.625Z,19.60
2019-04-20T10:36:06.192Z,19.60
2019-04-20T10:37:06.346Z,19.30
2019-04-20T10:38:05.884Z,19.70
2019-04-20T10:39:06.246Z,19.80
2019-04-20T10:40:21.243Z,19.70
2019-04-20T10:41:21.945Z,19.70
2019-04-20T10:42:06.736Z,19.60
2019-04-20T10:43:06.448Z,19.80
2019-04-20T10:44:07.009Z,20.10
2019-04-20T10:45:06.242Z,20.00
2019-04-20T10:46:06.796Z,20.20
2019-04-20T10:47:05.423Z,20.50
2019-04-20T10:48:05.805Z,20.00
2019-04-20T10:49:07.767Z,19.80
2019-04-20T10:50:07.068Z,19.60
2019-04-20T10:51:05.617Z,19.90
2019-04-20T10:52:05.852Z,19.50
2019-04-20T10:53:06.137Z,20.00
2019-04-20T10:54:14.201Z,20.60
2019-04-20T10:55:10.877Z,19.90
2019-04-20T10:56:07.341Z,19.90
2019-04-20T10:57:06.161Z,20.20
2019-04-20T10:58:05.480Z,19.00
2019-04-20T10:59:05.915Z,18.90
2019-04-20T11:00:06.228Z,18.40
2019-04-20T11:01:05.443Z,18.10
2019-04-20T11:02:06.057Z,17.90
2019-04-20T11:03:10.375Z,17.40
2019-04-20T11:04:05.420Z,17.40
2019-04-20T11:05:06.898Z,17.60
2019-04-20T11:06:05.258Z,17.90
2019-04-20T11:07:08.682Z,17.60
2019-04-20T11:08:06.914Z,17.60
2019-04-20T11:09:05.165Z,17.40
2019-04-20T11:10:22.676Z,17.30
2019-04-20T11:11:17.869Z,17.10
2019-04-20T11:12:06.756Z,17.00
2019-04-20T11:13:12.133Z,17.30
2019-04-20T11:14:16.151Z,17.40
2019-04-20T11:15:06.477Z,17.60
2019-04-20T11:16:06.885Z,16.50
2019-04-20T11:17:09.017Z,17.30
2019-04-20T11:18:05.144Z,17.20
2019-04-20T11:19:05.613Z,17.30
2019-04-20T11:20:10.943Z,17.40
2019-04-20T11:21:07.509Z,17.50
2019-04-20T11:22:10.370Z,17.90
2019-04-20T11:23:11.178Z,17.80
2019-04-20T11:24:05.321Z,17.80
2019-04-20T11:25:06.526Z,17.80
2019-04-20T11:26:06.695Z,17.10
2019-04-20T11:27:05.841Z,16.80
2019-04-20T11:28:08.622Z,17.60
2019-04-20T11:29:06.824Z,17.60
2019-04-20T11:30:09.938Z,17.60
2019-04-20T11:31:06.385Z,17.60
2019-04-20T11:32:15.590Z,17.20
2019-04-20T11:33:06.815Z,17.10
2019-04-20T11:34:06.367Z,16.70
2019-04-20T11:35:16.403Z,17.00
2019-04-20T11:36:05.630Z,17.30
2019-04-20T11:37:07.282Z,17.20
2019-04-20T11:38:13.701Z,17.60
2019-04-20T11:39:05.456Z,17.60
2019-04-20T11:40:06.847Z,17.60
2019-04-20T11:41:21.335Z,17.90
2019-04-20T11:42:06.091Z,18.10
2019-04-20T11:43:06.166Z,17.90
2019-04-20T11:44:05.964Z,18.00
2019-04-20T11:45:05.167Z,17.70
2019-04-20T11:46:06.750Z,17.50
2019-04-20T11:47:06.306Z,17.30
2019-04-20T11:48:05.827Z,17.40
2019-04-20T11:49:06.032Z,17.90
2019-04-20T11:50:05.426Z,18.10
2019-04-20T11:51:12.074Z,17.50
2019-04-20T11:52:05.930Z,17.60
2019-04-20T11:53:11.659Z,17.90
2019-04-20T11:54:06.761Z,17.90
2019-04-20T11:55:06.782Z,17.70
2019-04-20T11:56:18.952Z,17.70
2019-04-20T11:57:09.659Z,18.30
2019-04-20T11:58:16.704Z,18.20
2019-04-20T11:59:09.815Z,17.70
2019-04-20T12:00:11.431Z,17.70
2019-04-20T12:01:16.080Z,17.80
2019-04-20T12:02:09.738Z,18.00
2019-04-20T12:03:24.620Z,17.80
2019-04-20T12:04:35.553Z,18.30
2019-04-20T12:05:30.181Z,18.30
2019-04-20T12:06:08.872Z,18.10
2019-04-20T12:07:06.485Z,18.40
2019-04-20T12:08:11.620Z,18.20
2019-04-20T12:09:05.682Z,18.20
2019-04-20T12:10:14.931Z,18.10
2019-04-20T12:11:31.857Z,17.90
2019-04-20T12:12:27.167Z,18.30
2019-04-20T12:13:07.537Z,18.90
2019-04-20T12:14:07.380Z,18.90
2019-04-20T12:15:06.802Z,19.10
2019-04-20T12:16:06.055Z,19.30
2019-04-20T12:17:06.272Z,19.40
2019-04-20T12:18:05.742Z,19.60
2019-04-20T12:19:08.194Z,19.60
2019-04-20T12:20:06.361Z,19.30
2019-04-20T12:21:11.126Z,18.90
2019-04-20T12:22:10.220Z,19.10
2019-04-20T12:23:06.772Z,19.10
2019-04-20T12:24:06.610Z,19.20
2019-04-20T12:25:07.861Z,19.40
2019-04-20T12:26:11.329Z,20.00
2019-04-20T12:27:06.861Z,20.10
2019-04-20T12:28:07.354Z,20.00
2019-04-20T12:29:06.584Z,19.90
2019-04-20T12:30:08.397Z,19.70
2019-04-20T12:31:16.610Z,19.80
2019-04-20T12:32:08.951Z,19.80
2019-04-20T12:33:07.442Z,19.90
2019-04-20T12:34:08.985Z,19.50
2019-04-20T12:35:06.886Z,19.50
2019-04-20T12:36:06.424Z,19.50
2019-04-20T12:37:07.045Z,19.70
2019-04-20T12:38:07.191Z,19.80
2019-04-20T12:39:11.408Z,19.20
2019-04-20T12:40:05.505Z,19.20
2019-04-20T12:41:11.366Z,19.50
2019-04-20T12:42:11.110Z,19.70
2019-04-20T12:43:06.618Z,19.50
2019-04-20T12:44:06.243Z,19.30
2019-04-20T12:45:08.394Z,19.20
2019-04-20T12:46:05.892Z,19.30
2019-04-20T12:47:06.167Z,19.20
2019-04-20T12:48:11.872Z,19.50
2019-04-20T12:49:07.489Z,19.60
2019-04-20T12:50:07.568Z,19.40
2019-04-20T12:51:06.284Z,19.20
2019-04-20T12:52:08.267Z,19.30
2019-04-20T12:53:08.931Z,19.20
2019-04-20T12:54:07.109Z,19.20
2019-04-20T12:55:06.750Z,19.30
2019-04-20T12:56:06.409Z,19.40
2019-04-20T12:57:07.021Z,19.40
2019-04-20T12:58:05.293Z,19.30
2019-04-20T12:59:05.923Z,19.30
2019-04-20T13:00:06.096Z,19.30
2019-04-20T13:01:07.906Z,19.40
2019-04-20T13:02:07.058Z,19.40
2019-04-20T13:03:11.550Z,19.20
2019-04-20T13:04:09.309Z,19.20
2019-04-20T13:05:11.592Z,19.30
2019-04-20T13:06:07.624Z,19.30
2019-04-20T13:07:06.350Z,19.50
2019-04-20T13:08:08.961Z,19.20
2019-04-20T13:09:06.139Z,19.10
2019-04-20T13:10:07.579Z,18.70
2019-04-20T13:11:06.986Z,19.00
2019-04-20T13:12:12.105Z,19.00
2019-04-20T13:13:05.432Z,19.40
2019-04-20T13:14:06.792Z,19.50
2019-04-20T13:15:06.908Z,19.50
2019-04-20T13:16:08.637Z,19.20
2019-04-20T13:17:06.681Z,19.20
2019-04-20T13:18:07.162Z,19.20
2019-04-20T13:19:06.071Z,19.70
2019-04-20T13:20:06.268Z,19.50
2019-04-20T13:21:06.864Z,19.20
2019-04-20T13:22:05.646Z,18.80
2019-04-20T13:23:09.119Z,19.10
2019-04-20T13:24:06.762Z,18.80
2019-04-20T13:25:05.628Z,18.90
2019-04-20T13:26:15.766Z,19.30
2019-04-20T13:27:05.411Z,19.30
2019-04-20T13:28:05.518Z,19.30
2019-04-20T13:29:17.430Z,19.20
2019-04-20T13:30:05.773Z,19.20
2019-04-20T13:31:06.542Z,19.20
2019-04-20T13:32:09.645Z,19.30
2019-04-20T13:33:06.351Z,19.30
2019-04-20T13:34:05.930Z,19.30
2019-04-20T13:35:10.532Z,19.00
2019-04-20T13:36:06.471Z,19.00
2019-04-20T13:37:06.820Z,19.50
2019-04-20T13:38:12.339Z,19.50
2019-04-20T13:39:06.463Z,19.50
2019-04-20T13:40:06.941Z,19.20
2019-04-20T13:41:06.603Z,19.00
2019-04-20T13:42:19.026Z,18.70
2019-04-20T13:43:06.245Z,18.70
2019-04-20T13:44:07.996Z,18.80
2019-04-20T13:45:06.996Z,19.00
2019-04-20T13:46:05.347Z,18.90
2019-04-20T13:47:05.555Z,18.50
2019-04-20T13:48:07.016Z,18.40